首页
METAR-TAF:

METAR-TAF

机场 :

博伊西機場

博伊西, 爱达荷州, 美国

纬度: 43-34-00N, 经度: 116-14-26W, 海拔: 871米

当前天气观测

该预报发布于50分钟前的10:53 UTC
风速9节,风向东南
温度 12°C
湿度 40%
气压 1016 hPa
能見度: 16.1公里
天空无云

METAR: KBOI 191053Z 13009KT 10SM CLR 12/M01 A2999 RMK AO2 SLP138 T01171011

时间: 05:43 (11:43 UTC)

预报

该预报发布于6小时和23分钟前的05:20 UTC
预报有效从19日的 06点(UTC)到 20日的 06点(UTC)
风速10节,风向东南
能見度: 10公里
天空无云
从 19日的 1500点(UTC)
风速6节,风向多变
能見度: 10公里
天空无云
从 19日的 2000点(UTC)
风速7节,风向西北
能見度: 10公里
天空无云
从 20日的 0300点(UTC)
风速6节,风向多变
能見度: 10公里
天空无云

TAF: KBOI 190520Z 1906/2006 13010KT P6SM SKC FM191500 VRB06KT P6SM SKC FM192000 31007KT P6SM SKC FM200300 VRB06KT P6SM SKC

超过4000个机场的气象观测和天气预报(METAR&TAF报告)。

可查询的气象台以黄色和红色小点在地图上表示。

将鼠标移到小点上方,可查看气象台名称。

然后点击查看天气观测和预报。

如需切换地图:点击带黑十字的绿色按钮放大地图;点击带横线的绿色按钮缩小地图;或者点击绿色箭头查看邻近地区的地图。


METAR-TAF: